Time;durP1;ratioP1;P1;durP2;ratioP2;P2;SDS_P1;SDS_P2;PMS_P1;PMS_P2;Temp;Humidity;BMP_temperature;BMP_pressure;BME280_temperature;BME280_humidity;BME280_pressure;Samples;Min_cycle;Max_cycle;Signal;HPM_P1;HPM_P2
2022/04/19 00:00:48;;;;;;;26.65;15.73;;;3.90;99.90;;;;;;5011637;28;20493;-73
2022/04/19 00:03:15;;;;;;;31.10;16.88;;;3.90;99.90;;;;;;5013735;28;20065;-72
2022/04/19 00:05:42;;;;;;;26.05;15.32;;;3.80;99.90;;;;;;5013783;28;20534;-74
2022/04/19 00:08:09;;;;;;;29.02;16.77;;;3.80;99.90;;;;;;5012941;28;20461;-74
2022/04/19 00:10:35;;;;;;;26.92;16.85;;;3.80;99.90;;;;;;5011506;28;20037;-73
2022/04/19 00:13:02;;;;;;;23.55;14.57;;;3.80;99.90;;;;;;5014111;28;20029;-75
2022/04/19 00:15:30;;;;;;;25.55;14.25;;;3.80;99.90;;;;;;5013751;28;20380;-73
2022/04/19 00:17:57;;;;;;;27.10;14.63;;;3.80;99.90;;;;;;5013639;28;20018;-74
2022/04/19 00:20:24;;;;;;;28.13;14.68;;;3.70;99.90;;;;;;5013596;28;20105;-73
2022/04/19 00:22:50;;;;;;;21.25;13.88;;;3.70;99.90;;;;;;5013672;28;20366;-74
2022/04/19 00:25:17;;;;;;;22.65;13.68;;;3.70;99.90;;;;;;5013484;28;20384;-69
2022/04/19 00:27:43;;;;;;;21.77;13.90;;;3.60;99.90;;;;;;5027435;28;20018;-74
2022/04/19 00:30:10;;;;;;;21.85;14.00;;;3.70;99.90;;;;;;5028814;28;20088;-72
2022/04/19 00:32:37;;;;;;;25.58;14.25;;;3.70;99.90;;;;;;5013459;28;20018;-71
2022/04/19 00:35:04;;;;;;;22.48;14.25;;;3.70;99.90;;;;;;5012273;28;20034;-72
2022/04/19 00:37:30;;;;;;;21.45;13.70;;;3.70;99.90;;;;;;5028644;28;20018;-73
2022/04/19 00:39:58;;;;;;;23.00;14.05;;;3.70;99.90;;;;;;5012123;28;20464;-74
2022/04/19 00:42:30;;;;;;;25.33;15.55;;;3.70;99.90;;;;;;5006872;28;20104;-72
2022/04/19 00:44:57;;;;;;;25.77;15.82;;;3.70;99.90;;;;;;5004938;28;20150;-73
2022/04/19 00:47:23;;;;;;;26.65;15.45;;;3.70;99.90;;;;;;5023259;28;20455;-71
2022/04/19 00:49:49;;;;;;;27.63;16.80;;;3.60;99.90;;;;;;5009715;28;20507;-64
2022/04/19 00:52:16;;;;;;;26.13;14.55;;;3.50;99.90;;;;;;5007936;28;20022;-73
2022/04/19 00:54:43;;;;;;;25.35;14.63;;;3.50;99.90;;;;;;5002562;28;20310;-66
2022/04/19 00:57:11;;;;;;;25.75;15.05;;;3.50;99.90;;;;;;5011860;28;20476;-71
2022/04/19 00:59:40;;;;;;;25.00;17.25;;;3.50;99.90;;;;;;5023394;28;20036;-72
2022/04/19 01:02:07;;;;;;;27.33;16.15;;;3.50;99.90;;;;;;5027189;28;20030;-73
2022/04/19 01:04:33;;;;;;;26.40;16.63;;;3.50;99.90;;;;;;5006984;28;20092;-72
2022/04/19 01:06:59;;;;;;;28.80;16.58;;;3.50;99.90;;;;;;5011576;28;20491;-69
2022/04/19 01:09:26;;;;;;;25.35;15.25;;;3.50;99.90;;;;;;5011184;28;20048;-72
2022/04/19 01:14:40;;;;;;;24.25;14.70;;;3.40;99.90;;;;;;5001404;28;20022;-64
2022/04/19 01:17:08;;;;;;;22.83;15.25;;;3.50;99.90;;;;;;5026116;28;20084;-73
2022/04/19 01:19:40;;;;;;;25.08;14.85;;;3.30;99.90;;;;;;5016272;28;20053;-70
2022/04/19 01:22:14;;;;;;;25.20;15.20;;;3.20;99.90;;;;;;5000813;28;20026;-73
2022/04/19 01:24:43;;;;;;;28.73;18.48;;;3.10;99.90;;;;;;5003416;28;20038;-73
2022/04/19 01:27:13;;;;;;;31.33;20.42;;;3.00;99.90;;;;;;5006231;28;20551;-65
2022/04/19 01:29:42;;;;;;;31.00;19.48;;;2.90;99.90;;;;;;5017179;28;20125;-67
2022/04/19 01:32:09;;;;;;;28.92;17.75;;;2.80;99.90;;;;;;5010239;28;20084;-66
2022/04/19 01:34:37;;;;;;;30.88;17.48;;;2.80;99.90;;;;;;5017563;28;20022;-71
2022/04/19 01:37:09;;;;;;;27.67;15.95;;;2.80;99.90;;;;;;5024402;28;20526;-70
2022/04/19 01:42:19;;;;;;;27.45;15.30;;;2.80;99.90;;;;;;5006718;28;20105;-71
2022/04/19 01:44:50;;;;;;;25.83;14.05;;;2.70;99.90;;;;;;5010532;28;20097;-73
2022/04/19 01:47:17;;;;;;;22.63;14.18;;;2.70;99.90;;;;;;5024659;28;20021;-65
2022/04/19 01:49:47;;;;;;;21.70;14.00;;;2.70;99.90;;;;;;5010491;28;20072;-67
2022/04/19 01:52:14;;;;;;;22.80;14.38;;;2.60;99.90;;;;;;5011996;28;20039;-73
2022/04/19 01:54:41;;;;;;;23.38;14.43;;;2.50;99.90;;;;;;5008584;28;20369;-75
2022/04/19 01:57:08;;;;;;;22.60;14.77;;;2.40;99.90;;;;;;5009459;28;20022;-74
2022/04/19 01:59:46;;;;;;;23.50;13.75;;;2.50;99.90;;;;;;5003996;28;20068;-73
2022/04/19 02:02:23;;;;;;;22.45;14.95;;;2.50;99.90;;;;;;4992933;28;20030;-74
2022/04/19 02:04:52;;;;;;;20.83;13.07;;;2.50;99.90;;;;;;5006955;28;20026;-74
2022/04/19 02:07:19;;;;;;;22.25;13.48;;;2.40;99.90;;;;;;5004424;28;20030;-72
2022/04/19 02:09:47;;;;;;;23.20;14.15;;;2.50;99.90;;;;;;5006088;28;20037;-73
2022/04/19 02:12:13;;;;;;;25.45;14.68;;;2.50;99.90;;;;;;5007578;28;20045;-73
2022/04/19 02:15:07;;;;;;;25.35;14.65;;;2.40;99.90;;;;;;5003747;28;20519;-72
2022/04/19 02:17:33;;;;;;;26.05;13.63;;;2.40;99.90;;;;;;5004986;28;20022;-72
2022/04/19 02:20:05;;;;;;;23.70;13.48;;;2.40;99.90;;;;;;5008593;28;20014;-73
2022/04/19 02:22:32;;;;;;;23.48;13.68;;;2.40;99.90;;;;;;5009592;28;20145;-64
2022/04/19 02:24:59;;;;;;;23.55;13.38;;;2.50;99.90;;;;;;5010596;28;20034;-69
2022/04/19 02:27:28;;;;;;;22.00;13.23;;;2.40;99.90;;;;;;5008714;28;20021;-72
2022/04/19 02:29:57;;;;;;;22.33;14.13;;;2.40;99.90;;;;;;5009848;28;20116;-73
2022/04/19 02:32:23;;;;;;;26.20;14.30;;;2.40;99.90;;;;;;5009696;28;20100;-73
2022/04/19 02:34:54;;;;;;;20.70;13.13;;;2.40;99.90;;;;;;5026094;28;20037;-74
2022/04/19 02:37:20;;;;;;;22.55;13.35;;;2.40;99.90;;;;;;5009749;28;20026;-72
2022/04/19 02:39:49;;;;;;;24.88;12.63;;;2.40;99.90;;;;;;5009345;28;20121;-74
2022/04/19 02:42:16;;;;;;;23.17;14.25;;;2.40;99.90;;;;;;5010013;28;20037;-72
2022/04/19 02:44:42;;;;;;;22.70;14.15;;;2.40;99.90;;;;;;5023553;28;20026;-73
2022/04/19 02:47:15;;;;;;;21.10;12.90;;;2.40;99.90;;;;;;5009551;28;20068;-72
2022/04/19 02:49:45;;;;;;;24.42;13.80;;;2.50;99.90;;;;;;5025519;28;20042;-73
2022/04/19 02:52:11;;;;;;;23.55;13.02;;;2.40;99.90;;;;;;5009520;28;20022;-74
2022/04/19 02:54:37;;;;;;;21.73;12.90;;;2.40;99.90;;;;;;5008232;28;20109;-73
2022/04/19 02:57:04;;;;;;;19.52;12.48;;;2.50;99.90;;;;;;5010188;28;20442;-73
2022/04/19 02:59:30;;;;;;;22.92;13.77;;;2.40;99.90;;;;;;5021827;28;20072;-73
2022/04/19 03:01:58;;;;;;;22.02;13.07;;;2.40;99.90;;;;;;5024793;28;20085;-71
2022/04/19 03:04:24;;;;;;;21.58;13.45;;;2.40;99.90;;;;;;5007240;28;20510;-70
2022/04/19 03:06:50;;;;;;;20.02;12.82;;;2.40;99.90;;;;;;5006946;28;20030;-74
2022/04/19 03:09:17;;;;;;;19.73;12.60;;;2.50;99.90;;;;;;5007917;28;20022;-70
2022/04/19 03:11:43;;;;;;;23.17;13.38;;;2.50;99.90;;;;;;5007629;28;20034;-73
2022/04/19 03:14:10;;;;;;;26.17;11.05;;;2.50;99.90;;;;;;5024154;28;20099;-73
2022/04/19 03:16:36;;;;;;;17.88;10.80;;;2.50;99.90;;;;;;5024049;28;20559;-73
2022/04/19 03:19:02;;;;;;;21.60;11.68;;;2.40;99.90;;;;;;5007644;28;20104;-70
2022/04/19 03:21:29;;;;;;;18.13;10.90;;;2.30;99.90;;;;;;5023887;28;20026;-74
2022/04/19 03:29:24;;;;;;;16.73;10.52;;;2.30;99.90;;;;;;5029426;28;20072;-74
2022/04/19 03:31:50;;;;;;;22.77;10.00;;;2.40;99.90;;;;;;5013629;28;20030;-74
2022/04/19 03:34:16;;;;;;;17.75;10.80;;;2.30;99.90;;;;;;5012692;28;20080;-72
2022/04/19 03:36:44;;;;;;;19.58;10.68;;;2.20;99.90;;;;;;5012338;28;20243;-71
2022/04/19 03:39:10;;;;;;;23.40;12.43;;;2.30;99.90;;;;;;5011129;28;20491;-71
2022/04/19 03:41:36;;;;;;;21.17;11.80;;;2.30;99.90;;;;;;5013670;28;20021;-71
2022/04/19 03:44:07;;;;;;;20.63;10.70;;;2.20;99.90;;;;;;5028804;28;20122;-74
2022/04/19 03:47:06;;;;;;;17.83;10.32;;;2.20;99.90;;;;;;5012255;28;20117;-71
2022/04/19 03:49:19;;;;;;;21.83;12.10;;;2.30;99.90;;;;;;5018652;28;20034;-74
2022/04/19 03:51:44;;;;;;;19.05;9.65;;;2.40;99.90;;;;;;5011827;28;20132;-73
2022/04/19 03:54:11;;;;;;;23.63;12.30;;;2.30;99.90;;;;;;5011172;28;20033;-74
2022/04/19 03:56:37;;;;;;;23.58;11.23;;;2.30;99.90;;;;;;5028620;28;20030;-74
2022/04/19 03:59:03;;;;;;;31.63;12.05;;;2.40;99.90;;;;;;5012421;28;20034;-74
2022/04/19 04:01:29;;;;;;;18.75;10.75;;;2.60;99.90;;;;;;5011870;28;20080;-74
2022/04/19 04:03:55;;;;;;;21.50;11.07;;;3.00;99.90;;;;;;5013356;28;20034;-71
2022/04/19 04:06:21;;;;;;;22.73;11.38;;;3.50;99.90;;;;;;5011567;28;20113;-73
2022/04/19 04:08:47;;;;;;;22.35;10.52;;;4.00;99.90;;;;;;5028365;28;20164;-73
2022/04/19 04:11:13;;;;;;;17.13;10.15;;;4.40;99.90;;;;;;5011640;28;20480;-74
2022/04/19 04:13:44;;;;;;;20.13;10.52;;;4.90;99.90;;;;;;5028597;28;20365;-73
2022/04/19 04:16:10;;;;;;;19.42;11.52;;;5.60;99.90;;;;;;5011797;28;20175;-74
2022/04/19 04:18:39;;;;;;;20.90;11.65;;;6.00;97.80;;;;;;5011569;28;20060;-75
2022/04/19 04:21:06;;;;;;;20.27;12.93;;;6.60;96.80;;;;;;5028543;28;20018;-74
2022/04/19 04:23:33;;;;;;;25.10;13.95;;;7.10;93.30;;;;;;5009964;28;20476;-73
2022/04/19 04:26:05;;;;;;;30.08;18.52;;;7.40;92.10;;;;;;5009502;28;20030;-72
2022/04/19 04:28:34;;;;;;;29.70;19.25;;;8.00;89.90;;;;;;5008346;28;20037;-74
2022/04/19 04:31:00;;;;;;;27.55;17.70;;;8.50;86.80;;;;;;5011705;28;20590;-74
2022/04/19 04:33:26;;;;;;;26.60;16.92;;;8.50;83.10;;;;;;5011687;28;20372;-75
2022/04/19 04:35:52;;;;;;;24.15;16.27;;;8.70;83.40;;;;;;5011498;28;20399;-73
2022/04/19 04:38:18;;;;;;;23.02;15.63;;;8.90;81.40;;;;;;5012203;28;20022;-74
2022/04/19 04:40:43;;;;;;;22.77;16.27;;;9.20;81.40;;;;;;5011219;28;20030;-74
2022/04/19 04:43:12;;;;;;;29.25;16.63;;;9.60;79.50;;;;;;5011124;28;20096;-74
2022/04/19 04:45:38;;;;;;;31.17;19.95;;;9.70;78.40;;;;;;5011373;28;20571;-73
2022/04/19 04:50:54;;;;;;;23.80;15.43;;;9.40;77.90;;;;;;5009682;28;20411;-73
2022/04/19 04:53:21;;;;;;;21.63;15.13;;;9.80;78.60;;;;;;5011842;28;20032;-73
2022/04/19 04:56:02;;;;;;;28.63;14.75;;;10.60;76.30;;;;;;5026569;28;20026;-74
2022/04/19 04:58:28;;;;;;;21.98;13.77;;;11.30;74.70;;;;;;5012149;28;20029;-74
2022/04/19 05:00:54;;;;;;;24.27;15.13;;;11.20;73.10;;;;;;5010659;28;20033;-72
2022/04/19 05:03:20;;;;;;;26.88;15.25;;;11.90;72.30;;;;;;5010907;28;20136;-74
2022/04/19 05:05:46;;;;;;;20.00;12.43;;;12.20;71.40;;;;;;5026717;28;20036;-75
2022/04/19 05:08:14;;;;;;;20.85;13.10;;;12.10;69.70;;;;;;5010978;28;20060;-74
2022/04/19 05:10:40;;;;;;;23.30;13.80;;;12.00;69.70;;;;;;5010806;28;20037;-74
2022/04/19 05:13:13;;;;;;;20.75;13.20;;;10.40;71.80;;;;;;5025076;28;20057;-73
2022/04/19 05:15:40;;;;;;;26.02;18.17;;;9.90;74.50;;;;;;5026836;28;20034;-73
2022/04/19 05:18:06;;;;;;;26.80;16.13;;;9.30;75.40;;;;;;5011911;28;20139;-74
2022/04/19 05:20:32;;;;;;;26.23;12.50;;;8.80;77.70;;;;;;5010287;28;20030;-72
2022/04/19 05:22:58;;;;;;;21.92;12.73;;;8.90;78.90;;;;;;5024537;28;20366;-73
2022/04/19 05:25:26;;;;;;;23.00;12.20;;;8.70;80.40;;;;;;5026549;28;20064;-74
2022/04/19 05:27:52;;;;;;;18.52;11.75;;;8.90;80.70;;;;;;5009680;28;20033;-74
2022/04/19 05:30:18;;;;;;;24.30;13.52;;;8.80;82.50;;;;;;5026617;28;20532;-75
2022/04/19 05:32:44;;;;;;;21.75;12.55;;;8.80;83.20;;;;;;5010494;28;20566;-74
2022/04/19 05:35:10;;;;;;;27.85;12.88;;;9.00;82.70;;;;;;5026685;28;20038;-74
2022/04/19 05:37:37;;;;;;;22.20;13.65;;;9.10;84.60;;;;;;5011204;28;20026;-74
2022/04/19 05:40:04;;;;;;;23.60;11.60;;;8.90;84.70;;;;;;5024678;28;20030;-72
2022/04/19 05:42:30;;;;;;;19.13;11.65;;;9.00;85.20;;;;;;5008844;28;20029;-71
2022/04/19 05:44:56;;;;;;;23.17;12.02;;;8.90;87.50;;;;;;5010961;28;20484;-74
2022/04/19 05:47:22;;;;;;;18.20;9.70;;;8.70;88.10;;;;;;5026689;28;20354;-74
2022/04/19 05:49:48;;;;;;;21.65;10.77;;;8.80;88.30;;;;;;5010540;28;20419;-72
2022/04/19 05:52:13;;;;;;;22.98;11.60;;;8.80;90.20;;;;;;5009788;28;20112;-74
2022/04/19 05:54:41;;;;;;;17.25;10.27;;;8.50;89.00;;;;;;5009427;28;20515;-73
2022/04/19 05:57:09;;;;;;;18.92;10.18;;;8.70;91.10;;;;;;5010771;28;20026;-74
2022/04/19 05:59:35;;;;;;;18.02;11.02;;;8.60;90.20;;;;;;5023198;28;20491;-74
2022/04/19 06:04:52;;;;;;;20.73;10.43;;;8.40;91.40;;;;;;5009327;28;20030;-73
2022/04/19 06:07:21;;;;;;;20.80;10.80;;;8.50;91.80;;;;;;5023863;28;20026;-74
2022/04/19 06:09:47;;;;;;;25.58;11.60;;;8.60;92.80;;;;;;5026089;28;20595;-74
2022/04/19 06:12:13;;;;;;;23.92;10.48;;;8.50;92.20;;;;;;5026104;28;20030;-73
2022/04/19 06:14:46;;;;;;;;;;;8.70;92.80;;;;;;5026311;28;20095;-74
2022/04/19 06:17:14;;;;;;;23.48;10.77;;;8.70;92.60;;;;;;5009785;28;19965;-71
2022/04/19 06:19:41;;;;;;;18.42;10.55;;;8.70;92.20;;;;;;5025728;28;20124;-74
2022/04/19 06:22:08;;;;;;;15.43;9.85;;;8.80;91.40;;;;;;5008151;28;20029;-73
2022/04/19 06:24:36;;;;;;;18.60;10.07;;;8.70;91.50;;;;;;5008953;28;20447;-74
2022/04/19 06:27:02;;;;;;;19.95;10.90;;;8.90;91.80;;;;;;5025987;28;20172;-73
2022/04/19 06:29:28;;;;;;;21.50;10.38;;;8.80;91.50;;;;;;5024767;28;20049;-72
2022/04/19 06:31:56;;;;;;;18.73;10.07;;;8.90;91.60;;;;;;5025633;28;20033;-73
2022/04/19 06:34:34;;;;;;;19.85;9.60;;;9.00;91.30;;;;;;5025733;28;20098;-73
2022/04/19 06:37:13;;;;;;;15.45;9.35;;;9.10;91.20;;;;;;5007264;28;20117;-73
2022/04/19 06:39:43;;;;;;;16.30;8.27;;;9.40;90.90;;;;;;5008846;28;20033;-73
2022/04/19 06:42:09;;;;;;;15.25;8.88;;;9.30;89.70;;;;;;5008987;28;20476;-73
2022/04/19 06:44:55;;;;;;;18.25;8.82;;;9.30;88.80;;;;;;5010399;28;20033;-72
2022/04/19 06:47:26;;;;;;;16.98;8.27;;;9.30;90.30;;;;;;5007395;28;20026;-72
2022/04/19 06:49:57;;;;;;;17.58;9.50;;;9.60;90.40;;;;;;5008637;28;20048;-70
2022/04/19 06:52:24;;;;;;;14.18;9.52;;;9.90;86.10;;;;;;5009195;28;20072;-74
2022/04/19 06:54:50;;;;;;;17.48;10.00;;;10.20;86.00;;;;;;5008716;28;20030;-73
2022/04/19 06:57:16;;;;;;;16.77;9.95;;;10.50;84.30;;;;;;5009305;28;20026;-73
2022/04/19 06:59:42;;;;;;;21.80;10.73;;;10.70;86.50;;;;;;5009069;28;20026;-74
2022/04/19 07:02:08;;;;;;;17.88;10.88;;;10.80;81.50;;;;;;5027270;28;20030;-73
2022/04/19 07:04:34;;;;;;;20.55;10.25;;;10.60;82.60;;;;;;5013986;28;20025;-74
2022/04/19 07:07:04;;;;;;;17.70;9.88;;;10.80;82.80;;;;;;5027982;28;20026;-73
2022/04/19 07:09:30;;;;;;;17.98;9.10;;;11.10;82.30;;;;;;5010335;28;20025;-73
2022/04/19 07:11:58;;;;;;;17.58;10.15;;;11.40;79.00;;;;;;5007865;28;20113;-73
2022/04/19 07:14:27;;;;;;;18.23;10.70;;;11.60;80.60;;;;;;5008688;28;20026;-73
2022/04/19 07:16:59;;;;;;;18.98;9.05;;;11.90;82.10;;;;;;5012047;28;20029;-74
2022/04/19 07:28:03;;;;;;;9.98;6.43;;;13.10;74.60;;;;;;5011924;28;20081;-72
2022/04/19 07:30:36;;;;;;;11.70;6.32;;;13.10;74.30;;;;;;5026858;28;20034;-74
2022/04/19 07:33:04;;;;;;;13.05;6.43;;;13.10;70.00;;;;;;5011543;28;20468;-73
2022/04/19 07:35:33;;;;;;;10.55;5.55;;;13.20;69.10;;;;;;5011730;28;20439;-74
2022/04/19 07:38:00;;;;;;;11.80;6.07;;;13.40;70.10;;;;;;4996009;28;20030;-75
2022/04/19 07:40:38;;;;;;;9.60;5.03;;;13.50;68.40;;;;;;5010316;28;20421;-72
2022/04/19 07:43:05;;;;;;;8.07;4.65;;;13.80;68.30;;;;;;5028345;28;20026;-75
2022/04/19 07:45:31;;;;;;;8.57;4.57;;;14.00;66.10;;;;;;5010123;28;20396;-73
2022/04/19 07:47:57;;;;;;;6.28;4.03;;;14.10;68.20;;;;;;5027932;28;20037;-75
2022/04/19 07:50:22;;;;;;;7.60;4.32;;;14.20;65.90;;;;;;5028076;28;20049;-73
2022/04/19 07:52:48;;;;;;;9.13;4.93;;;14.20;64.40;;;;;;5011460;28;20385;-75
2022/04/19 07:55:14;;;;;;;10.45;5.63;;;14.30;65.40;;;;;;5027347;28;20041;-75
2022/04/19 07:57:40;;;;;;;6.28;3.97;;;14.20;64.70;;;;;;5013094;28;20021;-74
2022/04/19 08:00:07;;;;;;;7.85;4.57;;;14.30;61.40;;;;;;5010054;28;20365;-74
2022/04/19 08:02:41;;;;;;;10.30;4.95;;;14.10;63.00;;;;;;5012492;28;20044;-75
2022/04/19 08:05:10;;;;;;;9.52;5.07;;;14.40;61.70;;;;;;5027582;28;20026;-74
2022/04/19 08:07:36;;;;;;;6.07;4.47;;;14.20;63.60;;;;;;5008446;28;20018;-72
2022/04/19 08:10:03;;;;;;;6.28;4.22;;;14.50;61.70;;;;;;5027281;28;20613;-74
2022/04/19 08:12:31;;;;;;;7.50;4.10;;;14.90;62.40;;;;;;5009545;28;20014;-73
2022/04/19 08:14:57;;;;;;;5.05;2.85;;;14.90;61.10;;;;;;5012420;28;20067;-74
2022/04/19 08:17:23;;;;;;;7.93;3.80;;;14.50;56.80;;;;;;5027732;28;20042;-74
2022/04/19 08:19:49;;;;;;;5.97;3.00;;;14.00;58.30;;;;;;5027407;28;20036;-75
2022/04/19 08:22:16;;;;;;;4.93;3.00;;;14.20;61.30;;;;;;5011621;28;20514;-74
2022/04/19 08:24:51;;;;;;;6.25;3.30;;;14.30;62.00;;;;;;5010873;28;20041;-73
2022/04/19 08:27:17;;;;;;;6.15;3.40;;;14.40;61.10;;;;;;5011049;28;20060;-74
2022/04/19 08:29:43;;;;;;;7.78;3.40;;;14.30;61.20;;;;;;5013033;28;20121;-72
2022/04/19 08:32:10;;;;;;;4.70;2.70;;;14.60;58.90;;;;;;5011413;28;20555;-74
2022/04/19 08:34:37;;;;;;;6.57;3.03;;;14.90;55.50;;;;;;5011069;28;20034;-75
2022/04/19 08:37:05;;;;;;;4.22;3.15;;;15.00;59.10;;;;;;5026505;28;20084;-74
2022/04/19 08:39:31;;;;;;;5.88;3.20;;;14.60;54.50;;;;;;5011946;28;20022;-74
2022/04/19 08:41:57;;;;;;;3.72;2.60;;;14.70;56.20;;;;;;5027104;28;20116;-74
2022/04/19 08:44:25;;;;;;;5.63;2.88;;;15.00;54.90;;;;;;5027993;28;20038;-74
2022/04/19 08:46:54;;;;;;;6.10;3.08;;;15.10;57.80;;;;;;5012641;28;20038;-75
2022/04/19 08:49:20;;;;;;;3.78;2.40;;;14.90;58.60;;;;;;5012284;28;20045;-74
2022/04/19 08:51:46;;;;;;;5.13;2.70;;;14.70;56.00;;;;;;5011528;28;20029;-75
2022/04/19 08:59:41;;;;;;;4.75;3.03;;;14.00;56.70;;;;;;5012257;28;20420;-74
2022/04/19 09:02:17;;;;;;;5.85;2.67;;;14.20;56.50;;;;;;5011666;28;20021;-75
2022/04/19 09:04:44;;;;;;;4.15;2.50;;;14.10;55.10;;;;;;5012209;28;20033;-74
2022/04/19 09:07:10;;;;;;;3.75;2.65;;;14.40;57.80;;;;;;5011850;28;20010;-74
2022/04/19 09:09:38;;;;;;;5.18;2.63;;;14.60;57.00;;;;;;5010785;28;20037;-74
2022/04/19 09:12:12;;;;;;;4.95;2.80;;;15.10;58.20;;;;;;5009874;28;20389;-74
2022/04/19 09:15:06;;;;;;;4.35;2.78;;;15.00;58.00;;;;;;5010573;28;20030;-74
2022/04/19 09:17:42;;;;;;;7.60;2.60;;;15.30;58.10;;;;;;5028697;28;20033;-74
2022/04/19 09:20:18;;;;;;;2.67;2.20;;;15.60;55.30;;;;;;5027337;28;20123;-74
2022/04/19 09:22:48;;;;;;;4.70;2.90;;;15.40;54.00;;;;;;5011366;28;20029;-73
2022/04/19 09:25:15;;;;;;;6.53;3.28;;;15.20;54.20;;;;;;5027974;28;20132;-66
2022/04/19 09:27:42;;;;;;;7.05;3.38;;;15.10;56.70;;;;;;5028821;28;20141;-74
2022/04/19 09:30:34;;;;;;;5.53;3.15;;;15.30;57.30;;;;;;5028818;28;20037;-68
2022/04/19 09:33:16;;;;;;;4.85;2.97;;;15.30;54.70;;;;;;5023908;28;20068;-70
2022/04/19 09:35:45;;;;;;;8.70;3.30;;;15.00;55.90;;;;;;5027117;28;20247;-74
2022/04/19 09:38:13;;;;;;;4.75;2.80;;;14.50;55.30;;;;;;5026486;28;20039;-70
2022/04/19 09:40:44;;;;;;;4.68;2.75;;;14.50;55.10;;;;;;5027092;28;20485;-70
2022/04/19 09:43:20;;;;;;;4.05;2.58;;;14.50;54.20;;;;;;5028932;28;20029;-70
2022/04/19 09:46:05;;;;;;;7.28;2.58;;;14.80;57.70;;;;;;5117629;27;20199;-74
2022/04/19 09:48:32;;;;;;;3.67;2.13;;;14.60;51.00;;;;;;5108265;28;20019;-69
2022/04/19 09:51:04;;;;;;;4.85;2.67;;;14.60;56.00;;;;;;5107583;28;20016;-66
2022/04/19 09:53:51;;;;;;;5.03;2.27;;;15.10;55.60;;;;;;5106546;28;20016;-73
2022/04/19 09:56:18;;;;;;;3.78;2.10;;;15.30;55.80;;;;;;5105949;28;20036;-70
2022/04/19 09:58:46;;;;;;;5.68;2.72;;;15.30;55.50;;;;;;5107861;28;20031;-69
2022/04/19 10:09:39;;;;;;;2.85;2.00;;;14.70;53.70;;;;;;5108067;28;20023;-70
2022/04/19 10:12:12;;;;;;;4.30;2.38;;;15.10;55.60;;;;;;5106447;28;20086;-71
2022/04/19 10:14:39;;;;;;;4.65;2.30;;;15.30;54.50;;;;;;5107922;28;20055;-74
2022/04/19 10:17:05;;;;;;;6.45;2.17;;;15.40;54.70;;;;;;5093587;28;20036;-73
2022/04/19 10:19:32;;;;;;;5.32;2.20;;;15.50;52.90;;;;;;5106776;28;20059;-75
2022/04/19 10:22:05;;;;;;;4.20;2.17;;;15.80;54.30;;;;;;5105700;28;20106;-71
2022/04/19 10:24:48;;;;;;;3.90;2.30;;;15.90;52.50;;;;;;5104500;28;20448;-71
2022/04/19 10:27:14;;;;;;;4.10;2.67;;;15.30;53.10;;;;;;5113175;28;20031;-72
2022/04/19 10:29:43;;;;;;;3.25;1.88;;;15.20;51.20;;;;;;5106170;28;20023;-71
2022/04/19 10:32:10;;;;;;;3.25;2.25;;;15.30;52.30;;;;;;5107311;28;20092;-71
2022/04/19 10:34:38;;;;;;;5.53;2.17;;;14.90;50.00;;;;;;5101327;28;20466;-75
2022/04/19 10:37:16;;;;;;;3.50;2.00;;;14.90;50.50;;;;;;5084896;28;20031;-72
2022/04/19 10:40:03;;;;;;;3.53;2.08;;;14.40;50.00;;;;;;5086287;28;20032;-70
2022/04/19 10:42:36;;;;;;;3.42;2.30;;;14.60;51.60;;;;;;5086027;28;20378;-69
2022/04/19 10:45:14;;;;;;;3.65;2.20;;;15.10;52.40;;;;;;5086347;28;20051;-71
2022/04/19 10:47:56;;;;;;;4.57;3.10;;;15.50;51.50;;;;;;5087107;28;20033;-72
2022/04/19 10:50:33;;;;;;;3.72;2.28;;;15.40;53.10;;;;;;5082983;28;20028;-72
2022/04/19 10:53:03;;;;;;;2.33;1.73;;;15.50;52.70;;;;;;5084817;28;20020;-71
2022/04/19 10:55:36;;;;;;;7.20;2.67;;;15.50;52.90;;;;;;5081719;28;20823;-72
2022/04/19 10:58:21;;;;;;;7.50;2.45;;;16.00;52.80;;;;;;5073680;28;20028;-72
2022/04/19 11:01:02;;;;;;;3.35;1.90;;;16.20;50.70;;;;;;5071224;28;20035;-71
2022/04/19 11:03:37;;;;;;;4.03;2.22;;;15.90;50.80;;;;;;5071635;28;20025;-68
2022/04/19 11:06:08;;;;;;;3.45;1.80;;;16.10;51.70;;;;;;5071887;28;20056;-72
2022/04/19 11:08:37;;;;;;;4.50;1.83;;;15.90;47.50;;;;;;5072789;28;20037;-72
2022/04/19 11:11:04;;;;;;;3.88;2.08;;;16.10;49.60;;;;;;5073135;28;20033;-71
2022/04/19 11:13:38;;;;;;;4.40;1.83;;;16.10;50.80;;;;;;5073040;28;20029;-71
2022/04/19 11:16:04;;;;;;;3.42;2.03;;;16.20;50.90;;;;;;5073299;28;21512;-74
2022/04/19 11:18:34;;;;;;;3.33;2.10;;;16.20;50.20;;;;;;5074051;28;20017;-70
2022/04/19 11:21:03;;;;;;;9.15;2.40;;;15.80;49.80;;;;;;5070126;28;20028;-70
2022/04/19 11:23:50;;;;;;;5.47;2.22;;;15.80;49.90;;;;;;5073089;28;20475;-72
2022/04/19 11:26:31;;;;;;;5.05;2.33;;;15.90;49.80;;;;;;5087516;28;20029;-69
2022/04/19 11:29:09;;;;;;;6.00;2.50;;;15.80;49.00;;;;;;5077132;28;20055;-71
2022/04/19 11:31:36;;;;;;;3.40;2.05;;;15.50;48.30;;;;;;5071753;28;20151;-72
2022/04/19 11:34:11;;;;;;;6.93;2.40;;;15.10;49.60;;;;;;5072317;28;20012;-69
2022/04/19 11:36:37;;;;;;;2.47;2.05;;;15.30;50.40;;;;;;5072106;28;20530;-71
2022/04/19 11:39:03;;;;;;;4.80;2.50;;;15.40;51.00;;;;;;5072488;28;20069;-70
2022/04/19 11:46:45;;;;;;;5.05;2.30;;;15.70;50.40;;;;;;5071365;28;20161;-70
2022/04/19 11:49:27;;;;;;;6.00;2.38;;;15.70;49.40;;;;;;5073043;28;20047;-71
2022/04/19 11:52:14;;;;;;;2.90;2.13;;;15.80;51.60;;;;;;5068068;28;20040;-71
2022/04/19 11:54:40;;;;;;;6.38;2.83;;;16.00;52.10;;;;;;5069021;28;20037;-71
2022/04/19 11:57:08;;;;;;;5.07;2.33;;;16.30;53.00;;;;;;5067972;28;20024;-70
2022/04/19 11:59:37;;;;;;;4.20;2.28;;;16.30;50.30;;;;;;5064121;28;20045;-73
2022/04/19 12:02:05;;;;;;;5.80;2.70;;;16.20;51.90;;;;;;5070196;28;20099;-69
2022/04/19 12:04:30;;;;;;;5.85;2.88;;;16.00;47.90;;;;;;5072908;28;20451;-73
2022/04/19 12:07:02;;;;;;;5.05;2.90;;;16.10;49.70;;;;;;5072110;28;20099;-73
2022/04/19 12:09:32;;;;;;;4.13;2.10;;;15.90;48.40;;;;;;5071376;28;20032;-73
2022/04/19 12:11:59;;;;;;;3.75;2.30;;;16.10;50.30;;;;;;5079663;28;20024;-72
2022/04/19 12:14:29;;;;;;;4.25;2.65;;;16.20;52.80;;;;;;5077660;28;20032;-73
2022/04/19 12:17:06;;;;;;;3.50;2.47;;;16.40;52.70;;;;;;5072595;28;20035;-72
2022/04/19 12:19:40;;;;;;;5.55;3.08;;;16.50;51.40;;;;;;5072705;28;20048;-70
2022/04/19 12:22:19;;;;;;;4.15;2.30;;;16.80;50.40;;;;;;5072492;28;20029;-69
2022/04/19 12:24:50;;;;;;;4.60;2.17;;;16.80;49.50;;;;;;5070355;28;20363;-64
2022/04/19 12:27:23;;;;;;;4.10;2.33;;;16.90;49.10;;;;;;5072121;28;20128;-70
2022/04/19 12:30:12;;;;;;;4.93;2.03;;;17.00;50.00;;;;;;5071005;28;20047;-72
2022/04/19 12:32:55;;;;;;;5.80;2.75;;;16.70;50.10;;;;;;5070605;28;20016;-72
2022/04/19 12:35:39;;;;;;;3.15;2.22;;;16.80;48.50;;;;;;5071842;28;20021;-71
2022/04/19 12:38:13;;;;;;;4.57;2.47;;;16.90;49.00;;;;;;5072065;28;20036;-71
2022/04/19 12:40:40;;;;;;;4.82;3.28;;;16.80;49.50;;;;;;5071592;28;20048;-72
2022/04/19 12:43:06;;;;;;;6.82;2.40;;;16.80;50.80;;;;;;5073388;28;20474;-65
2022/04/19 12:45:35;;;;;;;4.05;2.25;;;16.70;48.60;;;;;;5072126;28;20477;-72
2022/04/19 12:48:07;;;;;;;6.88;3.42;;;16.70;49.90;;;;;;5069968;28;20024;-73
2022/04/19 12:50:34;;;;;;;11.45;5.43;;;16.80;49.50;;;;;;5068366;28;20025;-72
2022/04/19 12:53:00;;;;;;;6.45;3.22;;;16.90;49.90;;;;;;5067299;28;20367;-63
2022/04/19 12:55:31;;;;;;;9.18;2.97;;;16.80;48.80;;;;;;5070587;28;20086;-71
2022/04/19 12:58:09;;;;;;;5.35;3.13;;;16.70;48.40;;;;;;5072516;28;20029;-73
2022/04/19 13:00:36;;;;;;;9.68;3.38;;;16.80;48.70;;;;;;5078650;28;20027;-72
2022/04/19 13:03:06;;;;;;;4.55;2.70;;;16.90;49.30;;;;;;5083249;28;20031;-73
2022/04/19 13:13:45;;;;;;;4.18;2.53;;;16.70;48.40;;;;;;5068956;28;20529;-72
2022/04/19 13:16:11;;;;;;;3.25;2.00;;;16.60;47.40;;;;;;5077143;28;20097;-72
2022/04/19 13:18:38;;;;;;;5.45;2.55;;;16.80;49.40;;;;;;5082960;28;20107;-73
2022/04/19 13:21:05;;;;;;;5.72;2.50;;;16.50;47.50;;;;;;5070921;28;20032;-73
2022/04/19 13:23:31;;;;;;;5.40;2.95;;;16.50;48.00;;;;;;5075187;28;20376;-74
2022/04/19 13:25:57;;;;;;;9.05;2.67;;;16.60;48.90;;;;;;5072559;28;20039;-73
2022/04/19 13:28:25;;;;;;;3.30;2.40;;;16.50;47.00;;;;;;5052800;28;20025;-73
2022/04/19 13:30:52;;;;;;;21.20;8.15;;;16.50;48.40;;;;;;5051390;28;20021;-73
2022/04/19 13:33:19;;;;;;;9.88;3.75;;;16.60;49.50;;;;;;5054909;28;20017;-72
2022/04/19 13:35:45;;;;;;;9.15;3.30;;;16.70;48.60;;;;;;5068175;28;20542;-74
2022/04/19 13:38:26;;;;;;;3.75;2.42;;;16.60;47.70;;;;;;5074374;28;20079;-71
2022/04/19 13:40:52;;;;;;;6.32;2.40;;;16.60;47.10;;;;;;5091959;28;20103;-74
2022/04/19 13:43:18;;;;;;;14.63;3.47;;;16.60;47.80;;;;;;5089790;28;20069;-72